Time;durP1;ratioP1;P1;durP2;ratioP2;P2;SDS_P1;SDS_P2;PMS_P1;PMS_P2;Temp;Humidity;BMP_temperature;BMP_pressure;BME280_temperature;BME280_humidity;BME280_pressure;Samples;Min_cycle;Max_cycle;Signal;HPM_P1;HPM_P2
2022/01/26 00:07:08;;;;;;;;;;;0.90;97.30;;;;;;5022924;28;19916;-65
2022/01/26 00:09:33;;;;;;;;;;;0.90;97.40;;;;;;5023377;28;19909;-65
2022/01/26 00:11:59;;;;;;;;;;;0.90;97.30;;;;;;5026357;28;19909;-64
2022/01/26 00:14:25;;;;;;;;;;;0.90;97.10;;;;;;5026621;28;19910;-65
2022/01/26 00:16:51;;;;;;;;;;;0.80;97.40;;;;;;5026278;28;19914;-65
2022/01/26 00:19:24;;;;;;;;;;;0.80;97.50;;;;;;5026677;28;20204;-65
2022/01/26 00:21:54;;;;;;;;;;;0.80;97.60;;;;;;5025518;28;20220;-65
2022/01/26 00:24:37;;;;;;;;;;;0.70;97.70;;;;;;5026474;28;19968;-65
2022/01/26 00:27:09;;;;;;;;;;;0.70;97.90;;;;;;5026587;28;19985;-65
2022/01/26 00:29:38;;;;;;;;;;;0.80;98.20;;;;;;5026542;28;19910;-65
2022/01/26 00:42:56;;;;;;;;;;;0.90;97.80;;;;;;5025098;28;19922;-65
2022/01/26 00:45:25;;;;;;;;;;;0.90;97.80;;;;;;5026123;28;20021;-65
2022/01/26 00:47:51;;;;;;;;;;;0.90;98.00;;;;;;5026340;28;19910;-64
2022/01/26 00:50:17;;;;;;;;;;;0.90;98.00;;;;;;5026559;28;19910;-65
2022/01/26 00:52:46;;;;;;;;;;;0.90;97.90;;;;;;5025975;28;19909;-65
2022/01/26 00:55:15;;;;;;;;;;;0.90;97.90;;;;;;5026162;28;20208;-66
2022/01/26 00:57:41;;;;;;;;;;;0.90;97.80;;;;;;5025943;28;19909;-66
2022/01/26 01:00:12;;;;;;;;;;;1.00;97.90;;;;;;5024662;28;19955;-66
2022/01/26 01:02:38;;;;;;;;;;;1.00;98.10;;;;;;5024836;28;20214;-67
2022/01/26 01:05:12;;;;;;;;;;;0.90;97.80;;;;;;5025756;28;19909;-66
2022/01/26 01:07:39;;;;;;;;;;;0.90;97.80;;;;;;5024737;28;20085;-66
2022/01/26 01:10:05;;;;;;;;;;;0.90;98.00;;;;;;5024906;28;19917;-66
2022/01/26 01:12:37;;;;;;;;;;;0.90;97.80;;;;;;5025585;28;19913;-66
2022/01/26 01:15:03;;;;;;;;;;;0.90;98.00;;;;;;5025605;28;19910;-66
2022/01/26 01:17:36;;;;;;;;;;;0.90;97.90;;;;;;5025287;28;19917;-66
2022/01/26 01:30:42;;;;;;;;;;;0.90;97.70;;;;;;5024827;28;19945;-66
2022/01/26 01:33:10;;;;;;;;;;;0.90;97.70;;;;;;5025246;28;19909;-65
2022/01/26 01:35:38;;;;;;;;;;;0.90;97.70;;;;;;5025179;28;19932;-66
2022/01/26 01:38:16;;;;;;;;;;;1.00;97.80;;;;;;5025167;28;19916;-66
2022/01/26 01:40:43;;;;;;;;;;;1.00;97.90;;;;;;5023690;28;19940;-65
2022/01/26 01:43:09;;;;;;;;;;;1.00;98.00;;;;;;5023852;28;19914;-66
2022/01/26 01:45:37;;;;;;;;;;;1.00;97.90;;;;;;5024964;28;19925;-67
2022/01/26 01:48:04;;;;;;;;;;;0.90;98.00;;;;;;5024720;28;19909;-67
2022/01/26 01:50:30;;;;;;;;;;;1.00;98.00;;;;;;5024819;28;19909;-67
2022/01/26 01:53:00;;;;;;;;;;;1.00;98.00;;;;;;5023537;28;19909;-66
2022/01/26 01:55:28;;;;;;;;;;;1.00;98.00;;;;;;5024845;28;19977;-66
2022/01/26 01:57:57;;;;;;;;;;;1.10;97.70;;;;;;5023520;28;19944;-66
2022/01/26 02:00:24;;;;;;;;;;;1.10;97.80;;;;;;5024501;28;19909;-66
2022/01/26 02:02:49;;;;;;;;;;;1.00;97.90;;;;;;5024091;28;20226;-66
2022/01/26 02:05:15;;;;;;;;;;;1.00;98.10;;;;;;5023545;28;19909;-66
2022/01/26 02:07:41;;;;;;;;;;;1.00;97.90;;;;;;5023556;28;20509;-66
2022/01/26 02:10:08;;;;;;;;;;;1.00;98.00;;;;;;5024428;28;19909;-65
2022/01/26 02:12:36;;;;;;;;;;;1.00;98.20;;;;;;5024284;28;19972;-64
2022/01/26 02:15:09;;;;;;;;;;;0.90;98.10;;;;;;5024373;28;19925;-65
2022/01/26 02:18:05;;;;;;;;;;;0.90;98.20;;;;;;5024126;28;19910;-65
2022/01/26 02:50:43;;;;;;;;;;;0.90;98.10;;;;;;5023721;28;19971;-65
2022/01/26 02:56:02;;;;;;;;;;;0.90;98.20;;;;;;5022815;28;19917;-65
2022/01/26 03:03:38;;;;;;;;;;;0.90;98.10;;;;;;5023654;28;19917;-65
2022/01/26 03:06:09;;;;;;;;;;;1.00;98.00;;;;;;5023507;28;19917;-65
2022/01/26 03:08:40;;;;;;;;;;;0.90;98.20;;;;;;5023457;28;19916;-65
2022/01/26 03:11:09;;;;;;;;;;;0.90;98.00;;;;;;5023309;28;19917;-65
2022/01/26 03:13:38;;;;;;;;;;;1.00;98.10;;;;;;5023381;28;19909;-65
2022/01/26 03:16:12;;;;;;;;;;;1.00;97.90;;;;;;5023091;28;19909;-65
2022/01/26 03:21:11;;;;;;;;;;;0.90;97.40;;;;;;5023025;28;20208;-65
2022/01/26 03:36:45;;;;;;;;;;;0.90;97.50;;;;;;5063038;28;19913;-63
2022/01/26 03:39:15;;;;;;;;;;;0.80;97.20;;;;;;5062980;28;19908;-65
2022/01/26 03:41:45;;;;;;;;;;;0.80;97.30;;;;;;5062568;28;19909;-64
2022/01/26 03:44:10;;;;;;;;;;;0.90;97.30;;;;;;5062865;28;19912;-64
2022/01/26 03:46:36;;;;;;;;;;;0.80;96.80;;;;;;5066672;28;19931;-64
2022/01/26 03:49:03;;;;;;;;;;;0.80;96.40;;;;;;5066961;28;19931;-65
2022/01/26 03:51:29;;;;;;;;;;;0.80;96.40;;;;;;5048945;28;19917;-64
2022/01/26 03:53:54;;;;;;;;;;;0.80;96.50;;;;;;5066917;28;19909;-64
2022/01/26 03:56:20;;;;;;;;;;;0.80;96.40;;;;;;5066852;28;19909;-64
2022/01/26 03:58:46;;;;;;;;;;;0.80;96.50;;;;;;5066907;28;20300;-65
2022/01/26 04:01:12;;;;;;;;;;;0.70;96.60;;;;;;5060080;28;19909;-65
2022/01/26 04:03:38;;;;;;;;;;;0.70;96.70;;;;;;5046758;28;19913;-65
2022/01/26 04:06:03;;;;;;;;;;;0.70;96.80;;;;;;5046725;28;19917;-64
2022/01/26 04:08:32;;;;;;;;;;;0.70;96.90;;;;;;5046872;28;19948;-64
2022/01/26 04:11:23;;;;;;;;;;;0.70;96.90;;;;;;5046322;28;19909;-64
2022/01/26 04:13:43;;;;;;;;;;;0.60;96.50;;;;;;5045738;28;19944;-64
2022/01/26 04:16:09;;;;;;;;;;;0.50;96.50;;;;;;5046319;28;19948;-64
2022/01/26 04:18:38;;;;;;;;;;;0.60;96.70;;;;;;5046392;28;20151;-64
2022/01/26 04:21:14;;;;;;;;;;;0.60;96.90;;;;;;5046216;28;19972;-64
2022/01/26 04:26:06;;;;;;;;;;;0.70;96.90;;;;;;5046357;28;19972;-64
2022/01/26 04:28:39;;;;;;;;;;;0.70;97.10;;;;;;5046267;28;19909;-64
2022/01/26 04:31:05;;;;;;;;;;;0.70;96.60;;;;;;5045599;28;19913;-63
2022/01/26 04:33:33;;;;;;;;;;;0.70;96.50;;;;;;5046276;28;19940;-64
2022/01/26 04:35:59;;;;;;;;;;;0.70;96.50;;;;;;5046186;28;19909;-64
2022/01/26 04:38:35;;;;;;;;;;;0.70;96.30;;;;;;5046197;28;19920;-64
2022/01/26 04:43:49;;;;;;;;;;;0.60;96.40;;;;;;5045986;28;20234;-63
2022/01/26 04:46:15;;;;;;;;;;;0.60;96.60;;;;;;5045864;28;20124;-64
2022/01/26 04:48:41;;;;;;;;;;;0.60;96.80;;;;;;5046002;28;19909;-64
2022/01/26 04:51:06;;;;;;;;;;;0.70;96.80;;;;;;5045573;28;20146;-64
2022/01/26 04:53:32;;;;;;;;;;;0.70;96.40;;;;;;5045836;28;19948;-64
2022/01/26 04:55:58;;;;;;;;;;;0.70;96.40;;;;;;5045114;28;19909;-63
2022/01/26 04:58:23;;;;;;;;;;;0.70;96.40;;;;;;5045380;28;19984;-64
2022/01/26 05:00:49;;;;;;;;;;;0.60;96.40;;;;;;5045232;28;19910;-64
2022/01/26 05:03:15;;;;;;;;;;;0.60;96.50;;;;;;5045716;28;20096;-64
2022/01/26 05:05:41;;;;;;;;;;;0.70;96.60;;;;;;5045789;28;19909;-65
2022/01/26 05:08:06;;;;;;;;;;;0.60;96.50;;;;;;5045613;28;20211;-65
2022/01/26 05:10:32;;;;;;;;;;;0.60;96.40;;;;;;5045156;28;19971;-62
2022/01/26 05:12:58;;;;;;;;;;;0.60;96.30;;;;;;5045514;28;19909;-65
2022/01/26 05:15:25;;;;;;;;;;;0.70;96.50;;;;;;5045473;28;19944;-65
2022/01/26 05:17:51;;;;;;;;;;;0.70;96.50;;;;;;5045160;28;19940;-65
2022/01/26 05:20:17;;;;;;;;;;;0.70;96.50;;;;;;5045180;28;19970;-64
2022/01/26 05:22:44;;;;;;;;;;;0.70;96.30;;;;;;5044422;28;19909;-63
2022/01/26 05:25:11;;;;;;;;;;;0.70;96.30;;;;;;5045096;28;19916;-65
2022/01/26 05:27:37;;;;;;;;;;;0.70;96.30;;;;;;5045225;28;19909;-64
2022/01/26 05:30:03;;;;;;;;;;;0.70;96.50;;;;;;5045218;28;19952;-65
2022/01/26 05:32:29;;;;;;;;;;;0.80;96.50;;;;;;5044390;28;19977;-62
2022/01/26 05:34:55;;;;;;;;;;;0.80;96.40;;;;;;5045062;28;19913;-61
2022/01/26 05:37:20;;;;;;;;;;;0.80;96.40;;;;;;5044731;28;19923;-63
2022/01/26 05:39:46;;;;;;;;;;;0.90;96.20;;;;;;5045053;28;20265;-64
2022/01/26 05:42:12;;;;;;;;;;;0.80;96.10;;;;;;5044729;28;19909;-64
2022/01/26 05:44:38;;;;;;;;;;;0.80;96.20;;;;;;5044862;28;19913;-64
2022/01/26 05:47:07;;;;;;;;;;;0.80;96.30;;;;;;5044544;28;19976;-64
2022/01/26 05:49:32;;;;;;;;;;;0.80;96.40;;;;;;5044770;28;19913;-65
2022/01/26 05:51:58;;;;;;;;;;;0.90;96.30;;;;;;5044346;28;19909;-64
2022/01/26 05:54:24;;;;;;;;;;;0.80;96.40;;;;;;5044586;28;19909;-64
2022/01/26 05:56:49;;;;;;;;;;;0.90;96.30;;;;;;5044584;28;19939;-63
2022/01/26 05:59:20;;;;;;;;;;;0.90;96.40;;;;;;5044579;28;19917;-65
2022/01/26 06:01:46;;;;;;;;;;;0.80;96.50;;;;;;5043845;28;19917;-64
2022/01/26 06:04:12;;;;;;;;;;;0.80;96.50;;;;;;5044394;28;19920;-64
2022/01/26 06:06:38;;;;;;;;;;;0.80;96.60;;;;;;5044322;28;19909;-64
2022/01/26 06:09:03;;;;;;;;;;;0.80;96.60;;;;;;5044098;28;19913;-63
2022/01/26 06:11:29;;;;;;;;;;;0.80;96.50;;;;;;5043989;28;19916;-64
2022/01/26 06:13:55;;;;;;;;;;;0.80;96.40;;;;;;5044204;28;19980;-64
2022/01/26 06:16:22;;;;;;;;;;;0.80;96.30;;;;;;5044022;28;19909;-64
2022/01/26 06:18:48;;;;;;;;;;;0.80;96.30;;;;;;5044144;28;19909;-64
2022/01/26 06:21:14;;;;;;;;;;;0.80;96.30;;;;;;5043540;28;19916;-64
2022/01/26 06:23:40;;;;;;;;;;;0.80;96.40;;;;;;5043904;28;19952;-65
2022/01/26 06:26:06;;;;;;;;;;;0.80;96.30;;;;;;5043902;28;19934;-64
2022/01/26 06:28:32;;;;;;;;;;;0.80;96.10;;;;;;5044036;28;19948;-64
2022/01/26 06:31:00;;;;;;;;;;;0.80;96.00;;;;;;5043182;28;19931;-64
2022/01/26 06:33:27;;;;;;;;;;;0.80;95.70;;;;;;5043758;28;20453;-64
2022/01/26 06:35:52;;;;;;;;;;;0.90;95.70;;;;;;5026213;28;19951;-64
2022/01/26 06:38:18;;;;;;;;;;;0.90;95.60;;;;;;5043691;28;19913;-64
2022/01/26 06:40:44;;;;;;;;;;;0.90;95.40;;;;;;5025933;28;19913;-64
2022/01/26 06:43:13;;;;;;;;;;;0.80;95.10;;;;;;5043614;28;19920;-64
2022/01/26 06:45:47;;;;;;;;;;;0.80;95.00;;;;;;5043516;28;20139;-64
2022/01/26 06:50:56;;;;;;;;;;;0.70;95.40;;;;;;5043839;28;19909;-64
2022/01/26 06:53:22;;;;;;;;;;;0.60;95.50;;;;;;5043554;28;19949;-66
2022/01/26 06:55:48;;;;;;;;;;;0.60;95.60;;;;;;5043584;28;19932;-66
2022/01/26 06:58:13;;;;;;;;;;;0.70;95.80;;;;;;5043318;28;20143;-65
2022/01/26 07:00:39;;;;;;;;;;;0.70;95.80;;;;;;5042999;28;19909;-66
2022/01/26 07:03:05;;;;;;;;;;;0.80;95.70;;;;;;5043126;28;19920;-64
2022/01/26 07:05:31;;;;;;;;;;;0.80;95.90;;;;;;5043646;28;19909;-64
2022/01/26 07:07:56;;;;;;;;;;;0.90;95.70;;;;;;5043242;28;19916;-64
2022/01/26 07:10:22;;;;;;;;;;;1.00;95.40;;;;;;5043174;28;19915;-68
2022/01/26 07:12:48;;;;;;;;;;;0.90;95.60;;;;;;5042914;28;20146;-69
2022/01/26 07:23:40;;;;;;;;;;;0.70;95.80;;;;;;5042917;28;20218;-68
2022/01/26 07:26:06;;;;;;;;;;;0.70;95.90;;;;;;5042977;28;19913;-68
2022/01/26 07:28:37;;;;;;;;;;;0.70;96.20;;;;;;5042991;28;19917;-68
2022/01/26 07:31:04;;;;;;;;;;;0.70;96.10;;;;;;5042495;28;19920;-69
2022/01/26 07:33:30;;;;;;;;;;;0.80;96.10;;;;;;5025697;28;19912;-68
2022/01/26 07:35:56;;;;;;;;;;;0.70;96.10;;;;;;5042928;28;19909;-68
2022/01/26 07:38:21;;;;;;;;;;;0.80;96.30;;;;;;5021024;28;20143;-68
2022/01/26 07:40:47;;;;;;;;;;;0.80;96.30;;;;;;5022557;28;19909;-68
2022/01/26 07:43:13;;;;;;;;;;;0.80;95.90;;;;;;5037421;28;20311;-69
2022/01/26 07:45:39;;;;;;;;;;;0.80;95.80;;;;;;5042841;28;19955;-68
2022/01/26 07:48:04;;;;;;;;;;;0.80;96.00;;;;;;5042640;28;20139;-69
2022/01/26 07:50:30;;;;;;;;;;;0.90;95.90;;;;;;5007518;28;20282;-68
2022/01/26 07:52:57;;;;;;;;;;;0.80;95.90;;;;;;5042568;28;19941;-68
2022/01/26 07:55:23;;;;;;;;;;;0.80;95.80;;;;;;5042120;28;20093;-68
2022/01/26 07:57:51;;;;;;;;;;;0.80;95.70;;;;;;5042657;28;20208;-68
2022/01/26 08:00:17;;;;;;;;;;;0.90;95.70;;;;;;5042400;28;19909;-68
2022/01/26 08:02:43;;;;;;;;;;;0.90;95.40;;;;;;5024514;28;19971;-68
2022/01/26 08:05:09;;;;;;;;;;;0.80;95.70;;;;;;5042824;28;19916;-69
2022/01/26 08:07:35;;;;;;;;;;;0.80;95.70;;;;;;5025387;28;19919;-68
2022/01/26 08:10:01;;;;;;;;;;;0.70;95.50;;;;;;5042657;28;20112;-68
2022/01/26 08:12:27;;;;;;;;;;;0.70;95.80;;;;;;5042350;28;19916;-69
2022/01/26 08:14:53;;;;;;;;;;;0.70;95.90;;;;;;5024822;28;19913;-69
2022/01/26 08:17:19;;;;;;;;;;;0.70;95.80;;;;;;5042799;28;19952;-68
2022/01/26 08:19:44;;;;;;;;;;;0.70;95.10;;;;;;5042472;28;19976;-67
2022/01/26 08:22:17;;;;;;;;;;;0.70;94.80;;;;;;5041907;28;20014;-67
2022/01/26 08:24:43;;;;;;;;;;;0.60;94.60;;;;;;5042584;28;19980;-63
2022/01/26 08:27:12;;;;;;;;;;;0.60;94.60;;;;;;5025266;28;20379;-66
2022/01/26 08:29:44;;;;;;;;;;;0.70;95.10;;;;;;5042524;28;19921;-69
2022/01/26 08:32:09;;;;;;;;;;;0.70;95.20;;;;;;5044879;28;19977;-67
2022/01/26 08:34:35;;;;;;;;;;;0.80;95.70;;;;;;5046048;28;19909;-66
2022/01/26 08:37:01;;;;;;;;;;;0.70;95.30;;;;;;5046219;28;20295;-66
2022/01/26 08:39:27;;;;;;;;;;;0.80;95.20;;;;;;5045933;28;19909;-66
2022/01/26 08:41:53;;;;;;;;;;;0.70;95.40;;;;;;5045640;28;19947;-66
2022/01/26 08:44:18;;;;;;;;;;;0.70;95.30;;;;;;5045861;28;20226;-66
2022/01/26 08:46:44;;;;;;;;;;;0.80;95.30;;;;;;5045858;28;19916;-66
2022/01/26 08:49:10;;;;;;;;;;;0.90;95.20;;;;;;5045816;28;20147;-67
2022/01/26 08:51:36;;;;;;;;;;;0.90;95.40;;;;;;5045462;28;20208;-66
2022/01/26 08:54:02;;;;;;;;;;;0.80;95.50;;;;;;5045916;28;19976;-66
2022/01/26 08:56:27;;;;;;;;;;;0.90;95.50;;;;;;5045605;28;19909;-66
2022/01/26 08:58:53;;;;;;;;;;;0.90;95.60;;;;;;5045717;28;20115;-66
2022/01/26 09:01:19;;;;;;;;;;;0.80;95.70;;;;;;5027462;28;19909;-67
2022/01/26 09:03:45;;;;;;;;;;;0.80;95.90;;;;;;5045537;28;20110;-68
2022/01/26 09:06:10;;;;;;;;;;;0.80;95.90;;;;;;5045530;28;19955;-68
2022/01/26 09:08:38;;;;;;;;;;;0.80;95.80;;;;;;5045405;28;19908;-69
2022/01/26 09:11:04;;;;;;;;;;;0.70;95.50;;;;;;5044945;28;19988;-67
2022/01/26 09:13:31;;;;;;;;;;;0.90;95.60;;;;;;5045559;28;20134;-67
2022/01/26 09:15:57;;;;;;;;;;;0.90;95.60;;;;;;5027756;28;20190;-66
2022/01/26 09:18:33;;;;;;;;;;;1.00;95.50;;;;;;5044908;28;19909;-68
2022/01/26 09:20:59;;;;;;;;;;;1.00;95.30;;;;;;5044650;28;20146;-67
2022/01/26 09:23:24;;;;;;;;;;;1.10;95.40;;;;;;5044299;28;19913;-66
2022/01/26 09:25:50;;;;;;;;;;;1.00;95.30;;;;;;5025130;28;20011;-66
2022/01/26 09:28:16;;;;;;;;;;;1.00;95.20;;;;;;5025252;28;20336;-67
2022/01/26 09:30:44;;;;;;;;;;;1.10;95.30;;;;;;5007690;28;20927;-67
2022/01/26 09:33:09;;;;;;;;;;;1.10;95.40;;;;;;5044557;28;19940;-68
2022/01/26 09:35:35;;;;;;;;;;;1.10;95.50;;;;;;5044623;28;20218;-67
2022/01/26 09:38:01;;;;;;;;;;;1.10;95.40;;;;;;5044787;28;20195;-65
2022/01/26 09:40:26;;;;;;;;;;;1.10;95.50;;;;;;5044839;28;19924;-65
2022/01/26 09:42:52;;;;;;;;;;;1.10;95.50;;;;;;5043773;28;19909;-65
2022/01/26 09:45:18;;;;;;;;;;;1.10;95.50;;;;;;5043709;28;19996;-65
2022/01/26 09:47:44;;;;;;;;;;;1.10;95.40;;;;;;5044099;28;19916;-65
2022/01/26 09:50:10;;;;;;;;;;;1.10;95.30;;;;;;5044506;28;19909;-65
2022/01/26 09:52:41;;;;;;;;;;;1.10;95.50;;;;;;5044414;28;19909;-65
2022/01/26 09:55:08;;;;;;;;;;;1.10;95.40;;;;;;5044515;28;19909;-65
2022/01/26 09:57:33;;;;;;;;;;;1.10;95.40;;;;;;5044119;28;19909;-66
2022/01/26 09:59:59;;;;;;;;;;;1.10;95.40;;;;;;5039953;28;19955;-65
2022/01/26 10:02:31;;;;;;;;;;;1.10;95.40;;;;;;5031860;28;19916;-65
2022/01/26 10:05:06;;;;;;;;;;;1.10;95.50;;;;;;5044042;28;19913;-65
2022/01/26 10:15:34;;;;;;;;;;;1.30;95.60;;;;;;5043223;28;19947;-65
2022/01/26 10:18:15;;;;;;;;;;;1.30;95.70;;;;;;5043940;28;20159;-65
2022/01/26 10:20:47;;;;;;;;;;;1.30;95.60;;;;;;5043725;28;19916;-65
2022/01/26 10:23:22;;;;;;;;;;;1.20;95.60;;;;;;5043774;28;19921;-65
2022/01/26 10:26:03;;;;;;;;;;;1.30;95.60;;;;;;5043171;28;19909;-65
2022/01/26 10:28:44;;;;;;;;;;;1.20;95.80;;;;;;5043957;28;20207;-65
2022/01/26 10:31:41;;;;;;;;;;;1.30;95.80;;;;;;5035632;28;19951;-65
2022/01/26 10:34:13;;;;;;;;;;;1.20;95.80;;;;;;5037092;28;19909;-65
2022/01/26 10:36:54;;;;;;;;;;;1.20;96.00;;;;;;5042374;28;19940;-65
2022/01/26 10:39:27;;;;;;;;;;;1.20;96.20;;;;;;5042724;28;20167;-65
2022/01/26 10:41:56;;;;;;;;;;;1.20;96.10;;;;;;5043334;28;19912;-65
2022/01/26 10:44:40;;;;;;;;;;;1.20;96.10;;;;;;5043618;28;19913;-66
2022/01/26 10:47:07;;;;;;;;;;;1.30;96.00;;;;;;5043341;28;19979;-65
2022/01/26 10:52:22;;;;;;;;;;;1.30;96.00;;;;;;5043180;28;19909;-69
2022/01/26 10:54:48;;;;;;;;;;;1.30;95.90;;;;;;5020907;28;19932;-65
2022/01/26 10:57:14;;;;;;;;;;;1.30;96.00;;;;;;5023543;28;19910;-65
2022/01/26 10:59:42;;;;;;;;;;;1.20;96.10;;;;;;5023573;28;19947;-66
2022/01/26 11:02:09;;;;;;;;;;;1.20;95.90;;;;;;5022399;28;19932;-65
2022/01/26 11:04:38;;;;;;;;;;;1.20;95.80;;;;;;5042801;28;19987;-65
2022/01/26 11:07:05;;;;;;;;;;;1.20;95.60;;;;;;5043278;28;19979;-65
2022/01/26 11:09:32;;;;;;;;;;;1.10;95.80;;;;;;5043257;28;19916;-66
2022/01/26 11:12:11;;;;;;;;;;;1.10;96.00;;;;;;5008892;28;19909;-65
2022/01/26 11:14:45;;;;;;;;;;;1.20;96.10;;;;;;5042552;28;19932;-65
2022/01/26 11:17:22;;;;;;;;;;;1.30;96.20;;;;;;5043006;28;19916;-65
2022/01/26 11:19:48;;;;;;;;;;;1.20;95.70;;;;;;5043002;28;19909;-66
2022/01/26 11:22:14;;;;;;;;;;;1.30;95.80;;;;;;5042562;28;19916;-64
2022/01/26 11:24:49;;;;;;;;;;;1.30;95.80;;;;;;5041830;28;20212;-64
2022/01/26 11:27:16;;;;;;;;;;;1.40;96.10;;;;;;5042852;28;19909;-65
2022/01/26 11:29:46;;;;;;;;;;;1.40;96.10;;;;;;5025312;28;19913;-66
2022/01/26 11:32:31;;;;;;;;;;;1.50;95.50;;;;;;5035645;28;19947;-65
2022/01/26 11:34:57;;;;;;;;;;;1.40;95.40;;;;;;5035019;28;19933;-66
2022/01/26 11:37:34;;;;;;;;;;;1.40;95.80;;;;;;5022542;28;19910;-67
2022/01/26 11:45:34;;;;;;;;;;;1.30;96.00;;;;;;5007107;28;20089;-66
2022/01/26 11:48:23;;;;;;;;;;;1.30;96.20;;;;;;5023021;28;20208;-66
2022/01/26 11:50:57;;;;;;;;;;;1.30;96.30;;;;;;5022995;28;19916;-66
2022/01/26 11:53:24;;;;;;;;;;;1.30;96.40;;;;;;5023063;28;20115;-66
2022/01/26 11:55:52;;;;;;;;;;;1.30;96.30;;;;;;5041618;28;19913;-66
2022/01/26 11:58:31;;;;;;;;;;;1.30;96.30;;;;;;5043013;28;20204;-66
2022/01/26 12:03:43;;;;;;;;;;;1.20;96.50;;;;;;5033010;28;19913;-66
2022/01/26 12:06:17;;;;;;;;;;;1.20;96.50;;;;;;5038052;28;19944;-65
2022/01/26 12:08:43;;;;;;;;;;;1.20;96.60;;;;;;5046190;28;19909;-66
2022/01/26 12:11:10;;;;;;;;;;;1.10;96.80;;;;;;5046309;28;19940;-65
2022/01/26 12:13:37;;;;;;;;;;;1.10;96.90;;;;;;5046407;28;19909;-65
2022/01/26 12:16:14;;;;;;;;;;;1.00;96.50;;;;;;5046634;28;19909;-65
2022/01/26 12:18:58;;;;;;;;;;;1.00;96.60;;;;;;5044940;28;19916;-65
2022/01/26 12:35:20;;;;;;;;;;;0.80;97.40;;;;;;5028378;28;19966;-65
2022/01/26 12:43:13;;;;;;;;;;;0.90;97.30;;;;;;5046030;28;20113;-65
2022/01/26 12:45:39;;;;;;;;;;;0.80;97.10;;;;;;5045879;28;19913;-65
2022/01/26 12:48:08;;;;;;;;;;;0.90;97.10;;;;;;5038884;28;19909;-65
2022/01/26 12:50:33;;;;;;;;;;;0.90;97.10;;;;;;5036011;28;19917;-65
2022/01/26 12:52:59;;;;;;;;;;;0.90;97.10;;;;;;5044365;28;19909;-65
2022/01/26 12:55:30;;;;;;;;;;;0.90;97.40;;;;;;5044772;28;20241;-65
2022/01/26 12:57:55;;;;;;;;;;;0.90;97.50;;;;;;5045595;28;20218;-65
2022/01/26 13:00:23;;;;;;;;;;;1.00;97.30;;;;;;5027965;28;19909;-65
2022/01/26 13:02:50;;;;;;;;;;;1.00;97.20;;;;;;5044982;28;19909;-65
2022/01/26 13:05:22;;;;;;;;;;;1.00;97.30;;;;;;5045634;28;19923;-65
2022/01/26 13:07:57;;;;;;;;;;;1.00;97.40;;;;;;5028016;28;19913;-65
2022/01/26 13:10:23;;;;;;;;;;;1.10;97.40;;;;;;5012938;28;19916;-65
2022/01/26 13:12:49;;;;;;;;;;;1.10;97.50;;;;;;5045096;28;19909;-65
2022/01/26 13:15:25;;;;;;;;;;;1.10;97.40;;;;;;5045355;28;19909;-65
2022/01/26 13:18:08;;;;;;;;;;;1.10;97.20;;;;;;5031424;28;19910;-65
2022/01/26 13:52:15;;;;;;;;;;;0.90;97.30;;;;;;5024649;28;19911;-65
2022/01/26 13:59:56;;;;;;;;;;;0.80;97.30;;;;;;5044636;28;19916;-65
2022/01/26 14:02:24;;;;;;;;;;;0.80;97.50;;;;;;5043930;28;19937;-66
2022/01/26 14:04:49;;;;;;;;;;;0.90;97.30;;;;;;5044300;28;19913;-65
2022/01/26 14:07:16;;;;;;;;;;;0.80;97.20;;;;;;5044367;28;19936;-65
2022/01/26 14:09:44;;;;;;;;;;;0.70;96.90;;;;;;5044473;28;19909;-65
2022/01/26 14:12:12;;;;;;;;;;;0.80;97.30;;;;;;5044012;28;19909;-66
2022/01/26 14:14:42;;;;;;;;;;;0.70;97.30;;;;;;5044342;28;20132;-65
2022/01/26 14:17:15;;;;;;;;;;;0.80;97.30;;;;;;5044075;28;19909;-64
2022/01/26 14:27:37;;;;;;;;;;;0.50;98.10;;;;;;5044081;28;19909;-65
2022/01/26 14:30:16;;;;;;;;;;;0.60;98.30;;;;;;5033903;28;19917;-65
2022/01/26 15:48:42;;;;;;;;;;;0.70;95.50;;;;;;5042672;28;19913;-65
2022/01/26 15:58:28;;;;;;;;;;;0.60;95.60;;;;;;5042788;28;20238;-65
2022/01/26 16:06:20;;;;;;;;;;;0.70;95.90;;;;;;5042756;28;19936;-64
2022/01/26 17:11:22;;;;;;;;;;;0.60;96.00;;;;;;5025541;28;20208;-64
2022/01/26 18:16:50;;;;;;;;;;;0.60;96.20;;;;;;5024503;28;19913;-65
2022/01/26 18:32:42;;;;;;;;;;;0.50;96.80;;;;;;5040624;28;19956;-64
2022/01/26 18:51:26;;;;;;;;;;;0.50;97.50;;;;;;5043346;28;20107;-65
2022/01/26 18:53:52;;;;;;;;;;;0.40;97.70;;;;;;5043526;28;19909;-64
2022/01/26 18:56:17;;;;;;;;;;;0.40;97.90;;;;;;5043323;28;20144;-64
2022/01/26 18:58:43;;;;;;;;;;;0.40;97.90;;;;;;5043488;28;19909;-65
2022/01/26 19:01:09;;;;;;;;;;;0.40;98.00;;;;;;5043142;28;19909;-66
2022/01/26 19:03:35;;;;;;;;;;;0.40;98.10;;;;;;5043370;28;20204;-65
2022/01/26 19:06:02;;;;;;;;;;;0.40;98.20;;;;;;5043073;28;19947;-65
2022/01/26 19:08:29;;;;;;;;;;;0.40;98.30;;;;;;5043325;28;19909;-65
2022/01/26 19:10:55;;;;;;;;;;;0.40;98.20;;;;;;5042828;28;19909;-65
2022/01/26 19:13:26;;;;;;;;;;;0.40;98.20;;;;;;5043305;28;19917;-64
2022/01/26 19:15:55;;;;;;;;;;;0.50;98.10;;;;;;5042559;28;20244;-64
2022/01/26 19:18:31;;;;;;;;;;;0.40;98.20;;;;;;5043003;28;19912;-64
2022/01/26 19:21:06;;;;;;;;;;;0.40;98.30;;;;;;5042674;28;20227;-64
2022/01/26 19:26:23;;;;;;;;;;;0.40;98.40;;;;;;5041069;28;20012;-65
2022/01/26 19:28:56;;;;;;;;;;;0.50;98.40;;;;;;5042049;28;19909;-65
2022/01/26 19:50:40;;;;;;;;;;;0.40;98.20;;;;;;5041844;28;19974;-65
2022/01/26 19:52:46;;;;;;;;;;;0.40;98.20;;;;;;5041286;28;19925;-65
2022/01/26 19:55:12;;;;;;;;;;;0.40;98.30;;;;;;5041585;28;19931;-65
2022/01/26 19:57:38;;;;;;;;;;;0.50;98.30;;;;;;5041517;28;19909;-65
2022/01/26 20:00:04;;;;;;;;;;;0.40;98.20;;;;;;5041657;28;20208;-65
2022/01/26 20:02:29;;;;;;;;;;;0.30;98.30;;;;;;5041448;28;19909;-64
2022/01/26 20:04:55;;;;;;;;;;;0.40;98.40;;;;;;5041440;28;20147;-65
2022/01/26 20:07:26;;;;;;;;;;;0.40;98.60;;;;;;5041394;28;19921;-65
2022/01/26 20:09:56;;;;;;;;;;;0.40;98.40;;;;;;5041688;28;20007;-64
2022/01/26 20:15:00;;;;;;;;;;;0.40;98.40;;;;;;5041576;28;19913;-65
2022/01/26 20:17:27;;;;;;;;;;;0.40;98.30;;;;;;5026995;28;19931;-65
2022/01/26 20:19:52;;;;;;;;;;;0.40;98.30;;;;;;5020665;28;19909;-65
2022/01/26 20:22:18;;;;;;;;;;;0.50;98.40;;;;;;5021128;28;20042;-65
2022/01/26 20:24:44;;;;;;;;;;;0.40;98.40;;;;;;5026218;28;19920;-65
2022/01/26 20:27:10;;;;;;;;;;;0.40;98.30;;;;;;5042539;28;20252;-64
2022/01/26 20:29:42;;;;;;;;;;;0.30;98.50;;;;;;5045089;28;20106;-65
2022/01/26 20:32:08;;;;;;;;;;;0.30;98.50;;;;;;5044436;28;19920;-65
2022/01/26 20:34:34;;;;;;;;;;;0.30;98.50;;;;;;5045110;28;20242;-65
2022/01/26 20:37:00;;;;;;;;;;;0.30;98.40;;;;;;5043694;28;19909;-65
2022/01/26 20:39:25;;;;;;;;;;;0.30;98.50;;;;;;5045059;28;19989;-65
2022/01/26 20:41:51;;;;;;;;;;;0.40;98.40;;;;;;5044733;28;20221;-65
2022/01/26 20:44:18;;;;;;;;;;;0.30;98.40;;;;;;5044647;28;19952;-65
2022/01/26 20:46:45;;;;;;;;;;;0.30;98.40;;;;;;5044668;28;19980;-65
2022/01/26 20:49:10;;;;;;;;;;;0.30;98.60;;;;;;5044450;28;20222;-69
2022/01/26 20:51:36;;;;;;;;;;;0.30;98.50;;;;;;5028844;28;20020;-65
2022/01/26 20:54:03;;;;;;;;;;;0.30;98.80;;;;;;5044489;28;19909;-67
2022/01/26 20:56:29;;;;;;;;;;;0.30;98.50;;;;;;5028212;28;19917;-67
2022/01/26 20:58:55;;;;;;;;;;;0.30;98.40;;;;;;5024458;28;19910;-67
2022/01/26 21:01:20;;;;;;;;;;;0.30;98.30;;;;;;5024435;28;19974;-67
2022/01/26 21:03:47;;;;;;;;;;;0.30;98.30;;;;;;5024358;28;20152;-67
2022/01/26 21:06:14;;;;;;;;;;;0.30;98.30;;;;;;5025451;28;20004;-67
2022/01/26 21:08:41;;;;;;;;;;;0.30;98.20;;;;;;5025739;28;19909;-67
2022/01/26 21:11:06;;;;;;;;;;;0.30;98.30;;;;;;5024229;28;19910;-67
2022/01/26 21:13:33;;;;;;;;;;;0.30;98.20;;;;;;5007087;28;20092;-67
2022/01/26 21:15:59;;;;;;;;;;;0.30;98.30;;;;;;5024419;28;19967;-67
2022/01/26 21:18:29;;;;;;;;;;;0.30;98.30;;;;;;5024087;28;19992;-67
2022/01/26 21:20:54;;;;;;;;;;;0.30;98.30;;;;;;5027611;28;19914;-67
2022/01/26 21:23:20;;;;;;;;;;;0.30;98.30;;;;;;5031519;28;19936;-67
2022/01/26 21:25:46;;;;;;;;;;;0.30;98.10;;;;;;5036311;28;20112;-67
2022/01/26 21:28:12;;;;;;;;;;;0.30;98.30;;;;;;5026476;28;19909;-67
2022/01/26 21:30:37;;;;;;;;;;;0.30;98.00;;;;;;5043312;28;19940;-67
2022/01/26 21:33:03;;;;;;;;;;;0.30;98.00;;;;;;5026093;28;19968;-67
2022/01/26 21:35:29;;;;;;;;;;;0.20;98.10;;;;;;5043694;28;19909;-67
2022/01/26 21:37:55;;;;;;;;;;;0.20;98.30;;;;;;5042164;28;19924;-67
2022/01/26 21:40:20;;;;;;;;;;;0.20;98.30;;;;;;5043344;28;19913;-67
2022/01/26 21:42:46;;;;;;;;;;;0.20;98.30;;;;;;5043476;28;19976;-67
2022/01/26 21:45:12;;;;;;;;;;;0.30;98.40;;;;;;5043213;28;19921;-67
2022/01/26 21:47:37;;;;;;;;;;;0.30;98.30;;;;;;5043518;28;19976;-67
2022/01/26 21:50:04;;;;;;;;;;;0.30;98.20;;;;;;5041247;28;19929;-67
2022/01/26 21:52:30;;;;;;;;;;;0.30;98.10;;;;;;5029139;28;20223;-67
2022/01/26 21:54:56;;;;;;;;;;;0.30;98.00;;;;;;5043310;28;19909;-67
2022/01/26 21:57:22;;;;;;;;;;;0.30;98.10;;;;;;5043506;28;20216;-67
2022/01/26 21:59:47;;;;;;;;;;;0.30;97.90;;;;;;5043264;28;20116;-67
2022/01/26 22:02:13;;;;;;;;;;;0.30;97.90;;;;;;5043075;28;19997;-67
2022/01/26 22:04:39;;;;;;;;;;;0.30;98.20;;;;;;5039096;28;20271;-67